sensor_id;sensor_type;location;lat;lon;timestamp;P1;durP1;ratioP1;P2;durP2;ratioP2
10719;SDS011;5411;58.386;15.560;2022-11-25T00:01:27;12.03;;;6.90;;
10719;SDS011;5411;58.386;15.560;2022-11-25T00:03:56;13.30;;;8.13;;
10719;SDS011;5411;58.386;15.560;2022-11-25T00:06:26;11.93;;;7.80;;
10719;SDS011;5411;58.386;15.560;2022-11-25T00:08:56;13.43;;;8.13;;
10719;SDS011;5411;58.386;15.560;2022-11-25T00:11:26;14.23;;;7.50;;
10719;SDS011;5411;58.386;15.560;2022-11-25T00:13:55;11.00;;;7.03;;
10719;SDS011;5411;58.386;15.560;2022-11-25T00:16:24;12.27;;;7.47;;
10719;SDS011;5411;58.386;15.560;2022-11-25T00:18:54;10.50;;;6.80;;
10719;SDS011;5411;58.386;15.560;2022-11-25T00:21:23;13.93;;;7.67;;
10719;SDS011;5411;58.386;15.560;2022-11-25T00:23:53;11.30;;;6.80;;
10719;SDS011;5411;58.386;15.560;2022-11-25T00:26:22;10.60;;;7.17;;
10719;SDS011;5411;58.386;15.560;2022-11-25T00:28:53;11.30;;;7.17;;
10719;SDS011;5411;58.386;15.560;2022-11-25T00:31:23;10.43;;;6.80;;
10719;SDS011;5411;58.386;15.560;2022-11-25T00:33:52;11.10;;;6.67;;
10719;SDS011;5411;58.386;15.560;2022-11-25T00:36:21;12.07;;;6.73;;
10719;SDS011;5411;58.386;15.560;2022-11-25T00:38:51;12.07;;;6.60;;
10719;SDS011;5411;58.386;15.560;2022-11-25T00:41:24;11.53;;;7.33;;
10719;SDS011;5411;58.386;15.560;2022-11-25T00:44:12;13.37;;;7.40;;
10719;SDS011;5411;58.386;15.560;2022-11-25T00:47:01;12.07;;;6.50;;
10719;SDS011;5411;58.386;15.560;2022-11-25T00:49:30;10.77;;;6.60;;
10719;SDS011;5411;58.386;15.560;2022-11-25T00:51:58;10.50;;;6.53;;
10719;SDS011;5411;58.386;15.560;2022-11-25T00:54:39;9.00;;;6.00;;
10719;SDS011;5411;58.386;15.560;2022-11-25T00:57:07;10.27;;;6.20;;
10719;SDS011;5411;58.386;15.560;2022-11-25T00:59:36;11.07;;;6.37;;
10719;SDS011;5411;58.386;15.560;2022-11-25T01:02:04;8.57;;;6.00;;
10719;SDS011;5411;58.386;15.560;2022-11-25T01:04:33;11.17;;;6.33;;
10719;SDS011;5411;58.386;15.560;2022-11-25T01:07:04;10.03;;;5.97;;
10719;SDS011;5411;58.386;15.560;2022-11-25T01:09:40;9.43;;;5.93;;
10719;SDS011;5411;58.386;15.560;2022-11-25T01:12:10;10.30;;;6.57;;
10719;SDS011;5411;58.386;15.560;2022-11-25T01:14:39;9.53;;;5.50;;
10719;SDS011;5411;58.386;15.560;2022-11-25T01:17:07;8.73;;;5.90;;
10719;SDS011;5411;58.386;15.560;2022-11-25T01:19:35;8.80;;;6.00;;
10719;SDS011;5411;58.386;15.560;2022-11-25T01:22:06;6.60;;;5.50;;
10719;SDS011;5411;58.386;15.560;2022-11-25T01:24:42;10.57;;;6.37;;
10719;SDS011;5411;58.386;15.560;2022-11-25T01:27:10;11.27;;;6.40;;
10719;SDS011;5411;58.386;15.560;2022-11-25T01:29:37;9.37;;;5.97;;
10719;SDS011;5411;58.386;15.560;2022-11-25T01:32:08;8.10;;;5.73;;
10719;SDS011;5411;58.386;15.560;2022-11-25T01:34:36;7.70;;;5.20;;
10719;SDS011;5411;58.386;15.560;2022-11-25T01:37:04;8.47;;;5.50;;
10719;SDS011;5411;58.386;15.560;2022-11-25T01:39:34;7.50;;;5.37;;
10719;SDS011;5411;58.386;15.560;2022-11-25T01:42:04;8.53;;;5.77;;
10719;SDS011;5411;58.386;15.560;2022-11-25T01:44:32;7.57;;;4.93;;
10719;SDS011;5411;58.386;15.560;2022-11-25T01:47:08;8.80;;;5.37;;
10719;SDS011;5411;58.386;15.560;2022-11-25T01:49:42;9.00;;;5.57;;
10719;SDS011;5411;58.386;15.560;2022-11-25T01:52:17;7.83;;;5.60;;
10719;SDS011;5411;58.386;15.560;2022-11-25T01:54:52;6.43;;;5.03;;
10719;SDS011;5411;58.386;15.560;2022-11-25T01:57:25;10.93;;;5.87;;
10719;SDS011;5411;58.386;15.560;2022-11-25T01:59:58;8.53;;;5.53;;
10719;SDS011;5411;58.386;15.560;2022-11-25T02:02:32;7.47;;;4.90;;
10719;SDS011;5411;58.386;15.560;2022-11-25T02:05:01;7.90;;;5.17;;
10719;SDS011;5411;58.386;15.560;2022-11-25T02:07:34;7.73;;;5.77;;
10719;SDS011;5411;58.386;15.560;2022-11-25T02:10:06;10.23;;;5.33;;
10719;SDS011;5411;58.386;15.560;2022-11-25T02:12:38;7.50;;;5.07;;
10719;SDS011;5411;58.386;15.560;2022-11-25T02:15:10;7.37;;;4.80;;
10719;SDS011;5411;58.386;15.560;2022-11-25T02:17:42;8.87;;;5.70;;
10719;SDS011;5411;58.386;15.560;2022-11-25T02:20:12;6.73;;;4.70;;
10719;SDS011;5411;58.386;15.560;2022-11-25T02:22:46;9.37;;;5.67;;
10719;SDS011;5411;58.386;15.560;2022-11-25T02:25:26;7.23;;;4.90;;
10719;SDS011;5411;58.386;15.560;2022-11-25T02:27:57;7.53;;;5.10;;
10719;SDS011;5411;58.386;15.560;2022-11-25T02:30:29;7.93;;;4.87;;
10719;SDS011;5411;58.386;15.560;2022-11-25T02:32:58;8.27;;;5.30;;
10719;SDS011;5411;58.386;15.560;2022-11-25T02:35:29;8.03;;;5.20;;
10719;SDS011;5411;58.386;15.560;2022-11-25T02:38:02;7.33;;;4.87;;
10719;SDS011;5411;58.386;15.560;2022-11-25T02:40:35;7.00;;;5.07;;
10719;SDS011;5411;58.386;15.560;2022-11-25T02:43:08;7.50;;;5.30;;
10719;SDS011;5411;58.386;15.560;2022-11-25T02:45:39;6.63;;;4.67;;
10719;SDS011;5411;58.386;15.560;2022-11-25T02:48:18;8.33;;;5.37;;
10719;SDS011;5411;58.386;15.560;2022-11-25T02:51:06;8.70;;;5.10;;
10719;SDS011;5411;58.386;15.560;2022-11-25T02:53:36;7.97;;;5.07;;
10719;SDS011;5411;58.386;15.560;2022-11-25T02:56:07;7.63;;;4.80;;
10719;SDS011;5411;58.386;15.560;2022-11-25T02:58:35;6.23;;;4.90;;
10719;SDS011;5411;58.386;15.560;2022-11-25T03:01:03;7.57;;;4.63;;
10719;SDS011;5411;58.386;15.560;2022-11-25T03:03:31;6.87;;;5.00;;
10719;SDS011;5411;58.386;15.560;2022-11-25T03:06:00;7.60;;;4.70;;
10719;SDS011;5411;58.386;15.560;2022-11-25T03:08:27;7.47;;;4.90;;
10719;SDS011;5411;58.386;15.560;2022-11-25T03:10:56;5.80;;;4.63;;
10719;SDS011;5411;58.386;15.560;2022-11-25T03:13:25;7.20;;;5.10;;
10719;SDS011;5411;58.386;15.560;2022-11-25T03:15:55;7.63;;;4.70;;
10719;SDS011;5411;58.386;15.560;2022-11-25T03:18:23;7.90;;;4.90;;
10719;SDS011;5411;58.386;15.560;2022-11-25T03:20:51;9.00;;;5.53;;
10719;SDS011;5411;58.386;15.560;2022-11-25T03:23:20;8.90;;;5.03;;
10719;SDS011;5411;58.386;15.560;2022-11-25T03:25:48;8.67;;;5.07;;
10719;SDS011;5411;58.386;15.560;2022-11-25T03:28:16;10.30;;;5.57;;
10719;SDS011;5411;58.386;15.560;2022-11-25T03:30:45;7.17;;;5.50;;
10719;SDS011;5411;58.386;15.560;2022-11-25T03:33:13;7.17;;;4.93;;
10719;SDS011;5411;58.386;15.560;2022-11-25T03:35:42;7.50;;;4.73;;
10719;SDS011;5411;58.386;15.560;2022-11-25T03:38:10;7.87;;;4.77;;
10719;SDS011;5411;58.386;15.560;2022-11-25T03:40:37;8.10;;;5.50;;
10719;SDS011;5411;58.386;15.560;2022-11-25T03:43:06;7.97;;;5.37;;
10719;SDS011;5411;58.386;15.560;2022-11-25T03:45:34;7.17;;;4.23;;
10719;SDS011;5411;58.386;15.560;2022-11-25T03:48:03;6.73;;;4.30;;
10719;SDS011;5411;58.386;15.560;2022-11-25T03:50:31;7.87;;;5.10;;
10719;SDS011;5411;58.386;15.560;2022-11-25T03:52:59;6.03;;;4.30;;
10719;SDS011;5411;58.386;15.560;2022-11-25T03:55:27;6.83;;;4.50;;
10719;SDS011;5411;58.386;15.560;2022-11-25T03:57:56;5.33;;;4.37;;
10719;SDS011;5411;58.386;15.560;2022-11-25T04:00:25;6.60;;;4.83;;
10719;SDS011;5411;58.386;15.560;2022-11-25T04:02:53;7.27;;;4.60;;
10719;SDS011;5411;58.386;15.560;2022-11-25T04:05:23;7.33;;;4.30;;
10719;SDS011;5411;58.386;15.560;2022-11-25T04:07:51;8.27;;;5.17;;
10719;SDS011;5411;58.386;15.560;2022-11-25T04:10:23;9.00;;;6.00;;
10719;SDS011;5411;58.386;15.560;2022-11-25T04:12:51;8.27;;;4.70;;
10719;SDS011;5411;58.386;15.560;2022-11-25T04:15:20;8.33;;;5.20;;
10719;SDS011;5411;58.386;15.560;2022-11-25T04:17:48;9.27;;;5.13;;
10719;SDS011;5411;58.386;15.560;2022-11-25T04:20:17;7.57;;;5.40;;
10719;SDS011;5411;58.386;15.560;2022-11-25T04:22:46;7.47;;;4.93;;
10719;SDS011;5411;58.386;15.560;2022-11-25T04:25:14;9.43;;;4.93;;
10719;SDS011;5411;58.386;15.560;2022-11-25T04:27:42;8.40;;;5.17;;
10719;SDS011;5411;58.386;15.560;2022-11-25T04:30:14;8.73;;;5.47;;
10719;SDS011;5411;58.386;15.560;2022-11-25T04:32:42;6.47;;;4.90;;
10719;SDS011;5411;58.386;15.560;2022-11-25T04:35:10;6.40;;;4.43;;
10719;SDS011;5411;58.386;15.560;2022-11-25T04:37:38;7.00;;;5.27;;
10719;SDS011;5411;58.386;15.560;2022-11-25T04:40:08;8.47;;;5.13;;
10719;SDS011;5411;58.386;15.560;2022-11-25T04:42:37;7.67;;;4.73;;
10719;SDS011;5411;58.386;15.560;2022-11-25T04:45:06;8.17;;;4.83;;
10719;SDS011;5411;58.386;15.560;2022-11-25T04:47:51;9.40;;;5.20;;
10719;SDS011;5411;58.386;15.560;2022-11-25T04:50:20;10.23;;;5.07;;
10719;SDS011;5411;58.386;15.560;2022-11-25T04:52:49;12.03;;;4.83;;
10719;SDS011;5411;58.386;15.560;2022-11-25T04:55:18;6.73;;;5.00;;
10719;SDS011;5411;58.386;15.560;2022-11-25T04:57:46;8.67;;;5.37;;
10719;SDS011;5411;58.386;15.560;2022-11-25T05:00:14;7.33;;;4.93;;
10719;SDS011;5411;58.386;15.560;2022-11-25T05:02:42;5.40;;;4.40;;
10719;SDS011;5411;58.386;15.560;2022-11-25T05:05:10;6.47;;;3.83;;
10719;SDS011;5411;58.386;15.560;2022-11-25T05:07:38;8.57;;;4.17;;
10719;SDS011;5411;58.386;15.560;2022-11-25T05:10:06;6.73;;;4.40;;
10719;SDS011;5411;58.386;15.560;2022-11-25T05:12:36;7.07;;;4.60;;
10719;SDS011;5411;58.386;15.560;2022-11-25T05:15:07;7.97;;;4.27;;
10719;SDS011;5411;58.386;15.560;2022-11-25T05:17:42;5.67;;;4.67;;
10719;SDS011;5411;58.386;15.560;2022-11-25T05:20:16;5.90;;;4.00;;
10719;SDS011;5411;58.386;15.560;2022-11-25T05:22:44;7.00;;;4.90;;
10719;SDS011;5411;58.386;15.560;2022-11-25T05:25:12;6.57;;;5.27;;
10719;SDS011;5411;58.386;15.560;2022-11-25T05:27:43;8.00;;;4.30;;
10719;SDS011;5411;58.386;15.560;2022-11-25T05:30:11;7.10;;;4.57;;
10719;SDS011;5411;58.386;15.560;2022-11-25T05:32:39;5.20;;;3.87;;
10719;SDS011;5411;58.386;15.560;2022-11-25T05:35:07;6.10;;;4.60;;
10719;SDS011;5411;58.386;15.560;2022-11-25T05:37:35;7.13;;;4.33;;
10719;SDS011;5411;58.386;15.560;2022-11-25T05:40:04;5.97;;;4.40;;
10719;SDS011;5411;58.386;15.560;2022-11-25T05:42:32;7.77;;;4.73;;
10719;SDS011;5411;58.386;15.560;2022-11-25T05:45:02;5.50;;;4.03;;
10719;SDS011;5411;58.386;15.560;2022-11-25T05:47:30;5.33;;;3.70;;
10719;SDS011;5411;58.386;15.560;2022-11-25T05:49:58;5.93;;;4.60;;
10719;SDS011;5411;58.386;15.560;2022-11-25T05:52:26;6.33;;;4.77;;
10719;SDS011;5411;58.386;15.560;2022-11-25T05:54:54;6.23;;;3.93;;
10719;SDS011;5411;58.386;15.560;2022-11-25T05:57:22;5.67;;;4.00;;
10719;SDS011;5411;58.386;15.560;2022-11-25T05:59:50;6.80;;;5.10;;
10719;SDS011;5411;58.386;15.560;2022-11-25T06:02:22;6.80;;;4.77;;
10719;SDS011;5411;58.386;15.560;2022-11-25T06:04:50;7.93;;;5.53;;
10719;SDS011;5411;58.386;15.560;2022-11-25T06:07:18;7.57;;;4.50;;
10719;SDS011;5411;58.386;15.560;2022-11-25T06:09:46;8.37;;;5.77;;
10719;SDS011;5411;58.386;15.560;2022-11-25T06:12:13;5.50;;;4.57;;
10719;SDS011;5411;58.386;15.560;2022-11-25T06:14:41;7.77;;;4.93;;
10719;SDS011;5411;58.386;15.560;2022-11-25T06:17:09;7.23;;;4.63;;
10719;SDS011;5411;58.386;15.560;2022-11-25T06:19:38;6.57;;;4.80;;
10719;SDS011;5411;58.386;15.560;2022-11-25T06:22:06;8.50;;;5.10;;
10719;SDS011;5411;58.386;15.560;2022-11-25T06:24:34;6.63;;;4.60;;
10719;SDS011;5411;58.386;15.560;2022-11-25T06:27:03;5.50;;;4.30;;
10719;SDS011;5411;58.386;15.560;2022-11-25T06:29:31;7.07;;;5.00;;
10719;SDS011;5411;58.386;15.560;2022-11-25T06:32:01;6.90;;;4.80;;
10719;SDS011;5411;58.386;15.560;2022-11-25T06:34:29;7.33;;;4.50;;
10719;SDS011;5411;58.386;15.560;2022-11-25T06:36:58;5.47;;;4.43;;
10719;SDS011;5411;58.386;15.560;2022-11-25T06:39:26;6.30;;;4.50;;
10719;SDS011;5411;58.386;15.560;2022-11-25T06:41:54;6.23;;;4.70;;
10719;SDS011;5411;58.386;15.560;2022-11-25T06:44:22;6.27;;;4.70;;
10719;SDS011;5411;58.386;15.560;2022-11-25T06:46:49;6.03;;;4.87;;
10719;SDS011;5411;58.386;15.560;2022-11-25T06:49:17;7.13;;;4.67;;
10719;SDS011;5411;58.386;15.560;2022-11-25T06:51:48;7.03;;;5.13;;
10719;SDS011;5411;58.386;15.560;2022-11-25T06:54:18;7.53;;;5.20;;
10719;SDS011;5411;58.386;15.560;2022-11-25T06:56:49;7.60;;;5.13;;
10719;SDS011;5411;58.386;15.560;2022-11-25T06:59:19;6.77;;;4.40;;
10719;SDS011;5411;58.386;15.560;2022-11-25T07:01:47;7.83;;;4.97;;
10719;SDS011;5411;58.386;15.560;2022-11-25T07:04:15;10.10;;;5.40;;
10719;SDS011;5411;58.386;15.560;2022-11-25T07:06:43;11.13;;;5.60;;
10719;SDS011;5411;58.386;15.560;2022-11-25T07:09:11;8.33;;;4.43;;
10719;SDS011;5411;58.386;15.560;2022-11-25T07:11:40;7.70;;;6.00;;
10719;SDS011;5411;58.386;15.560;2022-11-25T07:14:11;7.27;;;5.17;;
10719;SDS011;5411;58.386;15.560;2022-11-25T07:16:41;7.90;;;5.43;;
10719;SDS011;5411;58.386;15.560;2022-11-25T07:19:10;7.63;;;5.60;;
10719;SDS011;5411;58.386;15.560;2022-11-25T07:21:39;9.33;;;6.03;;
10719;SDS011;5411;58.386;15.560;2022-11-25T07:24:09;10.17;;;6.30;;
10719;SDS011;5411;58.386;15.560;2022-11-25T07:26:38;7.47;;;6.10;;
10719;SDS011;5411;58.386;15.560;2022-11-25T07:29:09;6.63;;;5.47;;
10719;SDS011;5411;58.386;15.560;2022-11-25T07:32:03;10.97;;;6.27;;
10719;SDS011;5411;58.386;15.560;2022-11-25T07:34:36;8.53;;;5.93;;
10719;SDS011;5411;58.386;15.560;2022-11-25T07:37:04;9.07;;;6.03;;
10719;SDS011;5411;58.386;15.560;2022-11-25T07:39:35;8.13;;;5.87;;
10719;SDS011;5411;58.386;15.560;2022-11-25T07:42:21;11.20;;;6.30;;
10719;SDS011;5411;58.386;15.560;2022-11-25T07:44:52;10.63;;;6.77;;
10719;SDS011;5411;58.386;15.560;2022-11-25T07:47:20;10.97;;;5.67;;
10719;SDS011;5411;58.386;15.560;2022-11-25T07:49:48;10.07;;;6.50;;
10719;SDS011;5411;58.386;15.560;2022-11-25T07:52:16;7.90;;;5.93;;
10719;SDS011;5411;58.386;15.560;2022-11-25T07:54:48;10.60;;;6.53;;
10719;SDS011;5411;58.386;15.560;2022-11-25T07:57:16;11.37;;;6.30;;
10719;SDS011;5411;58.386;15.560;2022-11-25T07:59:44;11.17;;;6.20;;
10719;SDS011;5411;58.386;15.560;2022-11-25T08:02:13;9.83;;;6.23;;
10719;SDS011;5411;58.386;15.560;2022-11-25T08:04:41;10.13;;;6.37;;
10719;SDS011;5411;58.386;15.560;2022-11-25T08:07:09;9.77;;;6.40;;
10719;SDS011;5411;58.386;15.560;2022-11-25T08:09:47;10.57;;;6.27;;
10719;SDS011;5411;58.386;15.560;2022-11-25T08:12:16;10.83;;;5.63;;
10719;SDS011;5411;58.386;15.560;2022-11-25T08:14:45;15.03;;;7.40;;
10719;SDS011;5411;58.386;15.560;2022-11-25T08:17:15;10.23;;;6.37;;
10719;SDS011;5411;58.386;15.560;2022-11-25T08:19:43;10.67;;;6.03;;
10719;SDS011;5411;58.386;15.560;2022-11-25T08:22:10;9.80;;;6.20;;
10719;SDS011;5411;58.386;15.560;2022-11-25T08:24:38;9.13;;;6.60;;
10719;SDS011;5411;58.386;15.560;2022-11-25T08:27:06;12.10;;;7.13;;
10719;SDS011;5411;58.386;15.560;2022-11-25T08:29:34;13.73;;;6.80;;
10719;SDS011;5411;58.386;15.560;2022-11-25T08:32:03;14.23;;;7.17;;
10719;SDS011;5411;58.386;15.560;2022-11-25T08:34:38;12.87;;;7.07;;
10719;SDS011;5411;58.386;15.560;2022-11-25T08:37:06;10.77;;;6.73;;
10719;SDS011;5411;58.386;15.560;2022-11-25T08:39:34;11.77;;;7.20;;
10719;SDS011;5411;58.386;15.560;2022-11-25T08:42:18;10.87;;;6.50;;
10719;SDS011;5411;58.386;15.560;2022-11-25T08:44:49;11.63;;;7.40;;
10719;SDS011;5411;58.386;15.560;2022-11-25T08:47:18;10.70;;;7.20;;
10719;SDS011;5411;58.386;15.560;2022-11-25T08:49:50;11.50;;;7.30;;
10719;SDS011;5411;58.386;15.560;2022-11-25T08:52:19;12.47;;;7.27;;
10719;SDS011;5411;58.386;15.560;2022-11-25T08:54:47;12.00;;;6.80;;
10719;SDS011;5411;58.386;15.560;2022-11-25T08:57:16;11.20;;;6.03;;
10719;SDS011;5411;58.386;15.560;2022-11-25T08:59:44;13.33;;;7.77;;
10719;SDS011;5411;58.386;15.560;2022-11-25T09:02:13;15.07;;;6.27;;
10719;SDS011;5411;58.386;15.560;2022-11-25T09:04:43;9.43;;;6.63;;
10719;SDS011;5411;58.386;15.560;2022-11-25T09:07:12;10.93;;;6.73;;
10719;SDS011;5411;58.386;15.560;2022-11-25T09:09:41;9.90;;;6.10;;
10719;SDS011;5411;58.386;15.560;2022-11-25T09:12:12;12.67;;;6.00;;
10719;SDS011;5411;58.386;15.560;2022-11-25T09:14:40;8.03;;;5.87;;
10719;SDS011;5411;58.386;15.560;2022-11-25T09:17:08;9.47;;;5.63;;
10719;SDS011;5411;58.386;15.560;2022-11-25T09:19:37;9.43;;;6.40;;
10719;SDS011;5411;58.386;15.560;2022-11-25T09:22:05;10.17;;;5.27;;
10719;SDS011;5411;58.386;15.560;2022-11-25T09:24:35;10.53;;;5.80;;
10719;SDS011;5411;58.386;15.560;2022-11-25T09:27:03;6.60;;;5.07;;
10719;SDS011;5411;58.386;15.560;2022-11-25T09:29:31;7.13;;;5.30;;
10719;SDS011;5411;58.386;15.560;2022-11-25T09:32:00;10.00;;;5.07;;
10719;SDS011;5411;58.386;15.560;2022-11-25T09:34:30;8.40;;;5.33;;
10719;SDS011;5411;58.386;15.560;2022-11-25T09:37:02;8.10;;;4.80;;
10719;SDS011;5411;58.386;15.560;2022-11-25T09:39:29;7.67;;;5.47;;
10719;SDS011;5411;58.386;15.560;2022-11-25T09:42:06;6.97;;;4.70;;
10719;SDS011;5411;58.386;15.560;2022-11-25T09:45:05;6.47;;;4.33;;
10719;SDS011;5411;58.386;15.560;2022-11-25T09:48:00;7.60;;;4.87;;
10719;SDS011;5411;58.386;15.560;2022-11-25T09:50:40;9.07;;;5.23;;
10719;SDS011;5411;58.386;15.560;2022-11-25T09:53:20;7.53;;;5.47;;
10719;SDS011;5411;58.386;15.560;2022-11-25T09:56:01;5.83;;;4.30;;
10719;SDS011;5411;58.386;15.560;2022-11-25T09:58:33;6.70;;;4.90;;
10719;SDS011;5411;58.386;15.560;2022-11-25T10:01:03;7.20;;;4.90;;
10719;SDS011;5411;58.386;15.560;2022-11-25T10:03:36;8.07;;;5.67;;
10719;SDS011;5411;58.386;15.560;2022-11-25T10:06:09;5.50;;;4.60;;
10719;SDS011;5411;58.386;15.560;2022-11-25T10:08:42;6.50;;;5.07;;
10719;SDS011;5411;58.386;15.560;2022-11-25T10:11:15;6.73;;;4.47;;
10719;SDS011;5411;58.386;15.560;2022-11-25T10:13:55;5.80;;;4.43;;
10719;SDS011;5411;58.386;15.560;2022-11-25T10:16:30;7.23;;;5.03;;
10719;SDS011;5411;58.386;15.560;2022-11-25T10:19:05;6.53;;;5.00;;
10719;SDS011;5411;58.386;15.560;2022-11-25T10:21:42;7.13;;;5.30;;
10719;SDS011;5411;58.386;15.560;2022-11-25T10:24:11;8.50;;;5.53;;
10719;SDS011;5411;58.386;15.560;2022-11-25T10:26:42;7.53;;;4.93;;
10719;SDS011;5411;58.386;15.560;2022-11-25T10:32:09;7.70;;;5.03;;
10719;SDS011;5411;58.386;15.560;2022-11-25T10:34:45;7.70;;;4.90;;
10719;SDS011;5411;58.386;15.560;2022-11-25T10:37:20;7.43;;;5.03;;
10719;SDS011;5411;58.386;15.560;2022-11-25T10:39:54;7.60;;;5.13;;
10719;SDS011;5411;58.386;15.560;2022-11-25T10:42:22;7.10;;;5.70;;
10719;SDS011;5411;58.386;15.560;2022-11-25T10:44:53;5.20;;;4.60;;
10719;SDS011;5411;58.386;15.560;2022-11-25T10:47:31;9.63;;;4.70;;
10719;SDS011;5411;58.386;15.560;2022-11-25T10:52:54;5.77;;;4.60;;
10719;SDS011;5411;58.386;15.560;2022-11-25T10:55:26;7.17;;;5.33;;
10719;SDS011;5411;58.386;15.560;2022-11-25T10:57:56;7.83;;;5.03;;
10719;SDS011;5411;58.386;15.560;2022-11-25T11:00:27;6.57;;;4.77;;
10719;SDS011;5411;58.386;15.560;2022-11-25T11:02:59;6.97;;;4.57;;
10719;SDS011;5411;58.386;15.560;2022-11-25T11:05:42;6.90;;;5.40;;
10719;SDS011;5411;58.386;15.560;2022-11-25T11:08:16;7.40;;;5.17;;
10719;SDS011;5411;58.386;15.560;2022-11-25T11:10:48;8.63;;;5.60;;
10719;SDS011;5411;58.386;15.560;2022-11-25T11:13:41;7.13;;;5.27;;
10719;SDS011;5411;58.386;15.560;2022-11-25T11:16:22;8.73;;;5.37;;
10719;SDS011;5411;58.386;15.560;2022-11-25T11:18:53;6.33;;;4.83;;
10719;SDS011;5411;58.386;15.560;2022-11-25T11:21:23;7.53;;;5.60;;
10719;SDS011;5411;58.386;15.560;2022-11-25T11:23:56;7.87;;;5.43;;
10719;SDS011;5411;58.386;15.560;2022-11-25T11:26:26;7.33;;;5.23;;
10719;SDS011;5411;58.386;15.560;2022-11-25T11:28:58;6.63;;;5.40;;
10719;SDS011;5411;58.386;15.560;2022-11-25T11:31:30;7.87;;;4.73;;
10719;SDS011;5411;58.386;15.560;2022-11-25T11:34:04;7.93;;;5.10;;
10719;SDS011;5411;58.386;15.560;2022-11-25T11:36:51;8.70;;;5.27;;
10719;SDS011;5411;58.386;15.560;2022-11-25T11:39:35;7.87;;;5.17;;
10719;SDS011;5411;58.386;15.560;2022-11-25T11:42:18;7.27;;;5.60;;
10719;SDS011;5411;58.386;15.560;2022-11-25T11:44:59;10.53;;;5.43;;
10719;SDS011;5411;58.386;15.560;2022-11-25T11:47:39;6.70;;;5.03;;
10719;SDS011;5411;58.386;15.560;2022-11-25T11:50:24;6.57;;;4.87;;
10719;SDS011;5411;58.386;15.560;2022-11-25T11:52:56;8.53;;;5.73;;
10719;SDS011;5411;58.386;15.560;2022-11-25T11:55:33;8.90;;;5.73;;
10719;SDS011;5411;58.386;15.560;2022-11-25T11:58:12;7.67;;;5.27;;
10719;SDS011;5411;58.386;15.560;2022-11-25T12:00:54;9.03;;;6.40;;
10719;SDS011;5411;58.386;15.560;2022-11-25T12:03:34;10.03;;;5.90;;
10719;SDS011;5411;58.386;15.560;2022-11-25T12:06:08;7.87;;;5.03;;
10719;SDS011;5411;58.386;15.560;2022-11-25T12:08:41;9.90;;;5.50;;
10719;SDS011;5411;58.386;15.560;2022-11-25T12:11:15;8.40;;;5.17;;
10719;SDS011;5411;58.386;15.560;2022-11-25T12:13:49;9.40;;;5.27;;
10719;SDS011;5411;58.386;15.560;2022-11-25T12:16:28;7.50;;;5.50;;
10719;SDS011;5411;58.386;15.560;2022-11-25T12:19:03;7.60;;;5.77;;
10719;SDS011;5411;58.386;15.560;2022-11-25T12:21:41;9.97;;;5.90;;
10719;SDS011;5411;58.386;15.560;2022-11-25T12:24:16;7.17;;;5.70;;
10719;SDS011;5411;58.386;15.560;2022-11-25T12:26:50;8.03;;;5.70;;
10719;SDS011;5411;58.386;15.560;2022-11-25T12:29:26;8.53;;;4.87;;
10719;SDS011;5411;58.386;15.560;2022-11-25T12:32:05;7.90;;;5.83;;
10719;SDS011;5411;58.386;15.560;2022-11-25T12:35:00;6.90;;;5.13;;
10719;SDS011;5411;58.386;15.560;2022-11-25T12:37:33;6.77;;;5.13;;
10719;SDS011;5411;58.386;15.560;2022-11-25T12:40:06;6.67;;;4.80;;
10719;SDS011;5411;58.386;15.560;2022-11-25T12:42:41;9.80;;;6.10;;
10719;SDS011;5411;58.386;15.560;2022-11-25T12:45:14;7.73;;;5.60;;
10719;SDS011;5411;58.386;15.560;2022-11-25T12:47:48;8.67;;;5.47;;
10719;SDS011;5411;58.386;15.560;2022-11-25T12:50:22;9.23;;;6.00;;
10719;SDS011;5411;58.386;15.560;2022-11-25T12:53:04;8.27;;;5.70;;
10719;SDS011;5411;58.386;15.560;2022-11-25T12:55:38;8.50;;;5.80;;
10719;SDS011;5411;58.386;15.560;2022-11-25T13:01:18;10.47;;;6.20;;
10719;SDS011;5411;58.386;15.560;2022-11-25T13:07:32;10.87;;;7.50;;
10719;SDS011;5411;58.386;15.560;2022-11-25T13:10:18;11.63;;;7.77;;
10719;SDS011;5411;58.386;15.560;2022-11-25T13:13:17;12.37;;;7.93;;
10719;SDS011;5411;58.386;15.560;2022-11-25T13:15:53;11.70;;;7.93;;
10719;SDS011;5411;58.386;15.560;2022-11-25T13:18:26;12.50;;;7.60;;
10719;SDS011;5411;58.386;15.560;2022-11-25T13:21:04;10.57;;;7.33;;
10719;SDS011;5411;58.386;15.560;2022-11-25T13:23:44;10.67;;;7.07;;
10719;SDS011;5411;58.386;15.560;2022-11-25T13:32:35;8.07;;;6.00;;
10719;SDS011;5411;58.386;15.560;2022-11-25T13:37:58;7.90;;;5.93;;
10719;SDS011;5411;58.386;15.560;2022-11-25T13:40:35;9.07;;;6.07;;
10719;SDS011;5411;58.386;15.560;2022-11-25T13:43:04;8.00;;;5.97;;
10719;SDS011;5411;58.386;15.560;2022-11-25T13:45:47;9.40;;;5.60;;
10719;SDS011;5411;58.386;15.560;2022-11-25T13:48:16;10.37;;;5.47;;
10719;SDS011;5411;58.386;15.560;2022-11-25T13:50:48;9.60;;;6.23;;
10719;SDS011;5411;58.386;15.560;2022-11-25T13:53:37;9.57;;;6.17;;
10719;SDS011;5411;58.386;15.560;2022-11-25T13:56:14;8.87;;;6.23;;
10719;SDS011;5411;58.386;15.560;2022-11-25T14:01:53;11.50;;;7.07;;
10719;SDS011;5411;58.386;15.560;2022-11-25T14:04:24;11.10;;;7.17;;
10719;SDS011;5411;58.386;15.560;2022-11-25T14:07:10;11.20;;;7.10;;
10719;SDS011;5411;58.386;15.560;2022-11-25T14:12:59;8.93;;;6.53;;
10719;SDS011;5411;58.386;15.560;2022-11-25T14:15:43;11.30;;;7.07;;
10719;SDS011;5411;58.386;15.560;2022-11-25T14:18:35;9.83;;;6.50;;
10719;SDS011;5411;58.386;15.560;2022-11-25T14:21:45;10.90;;;6.73;;
10719;SDS011;5411;58.386;15.560;2022-11-25T14:24:27;10.27;;;6.47;;
10719;SDS011;5411;58.386;15.560;2022-11-25T14:27:00;10.23;;;7.17;;
10719;SDS011;5411;58.386;15.560;2022-11-25T14:29:36;10.83;;;7.03;;
10719;SDS011;5411;58.386;15.560;2022-11-25T14:32:09;9.33;;;6.83;;
10719;SDS011;5411;58.386;15.560;2022-11-25T14:34:41;11.23;;;7.07;;
10719;SDS011;5411;58.386;15.560;2022-11-25T14:37:13;9.70;;;6.80;;
10719;SDS011;5411;58.386;15.560;2022-11-25T14:39:48;10.60;;;6.30;;
10719;SDS011;5411;58.386;15.560;2022-11-25T14:42:22;8.33;;;5.97;;
10719;SDS011;5411;58.386;15.560;2022-11-25T14:44:55;12.07;;;6.77;;
10719;SDS011;5411;58.386;15.560;2022-11-25T14:47:24;9.67;;;6.73;;
10719;SDS011;5411;58.386;15.560;2022-11-25T14:49:54;9.67;;;6.60;;
10719;SDS011;5411;58.386;15.560;2022-11-25T14:52:44;13.87;;;7.07;;
10719;SDS011;5411;58.386;15.560;2022-11-25T14:55:14;11.27;;;6.83;;
10719;SDS011;5411;58.386;15.560;2022-11-25T14:57:53;12.27;;;7.30;;
10719;SDS011;5411;58.386;15.560;2022-11-25T15:00:23;12.77;;;7.93;;
10719;SDS011;5411;58.386;15.560;2022-11-25T15:02:53;12.90;;;8.10;;
10719;SDS011;5411;58.386;15.560;2022-11-25T15:05:22;12.37;;;8.47;;
10719;SDS011;5411;58.386;15.560;2022-11-25T15:07:55;12.77;;;9.30;;
10719;SDS011;5411;58.386;15.560;2022-11-25T15:10:33;13.43;;;8.13;;
10719;SDS011;5411;58.386;15.560;2022-11-25T15:13:08;11.20;;;7.73;;
10719;SDS011;5411;58.386;15.560;2022-11-25T15:15:44;12.67;;;7.90;;
10719;SDS011;5411;58.386;15.560;2022-11-25T15:18:16;13.10;;;8.23;;
10719;SDS011;5411;58.386;15.560;2022-11-25T15:20:47;13.40;;;8.07;;
10719;SDS011;5411;58.386;15.560;2022-11-25T15:23:18;13.50;;;8.40;;
10719;SDS011;5411;58.386;15.560;2022-11-25T15:25:58;16.60;;;8.93;;
10719;SDS011;5411;58.386;15.560;2022-11-25T15:28:31;13.97;;;7.77;;
10719;SDS011;5411;58.386;15.560;2022-11-25T15:31:06;13.43;;;8.33;;
10719;SDS011;5411;58.386;15.560;2022-11-25T15:33:36;15.13;;;8.40;;
10719;SDS011;5411;58.386;15.560;2022-11-25T15:36:05;13.83;;;8.60;;
10719;SDS011;5411;58.386;15.560;2022-11-25T15:38:35;13.77;;;7.83;;
10719;SDS011;5411;58.386;15.560;2022-11-25T15:41:12;14.30;;;8.20;;